Flight Track Log - Related Links

Times and Time Zones

All times are in EDT time to prevent confusion due to time zone crossing. See the JZA8019 flight status page for this flight to view local times or setup timezone preferences in your user account.

Time Position Orientation Groundspeed Altitude Reporting Facility
EDT Latitude Longitude Course Direction KTS MPH feet Rate Location/Type
Fri 05:24:44 PM 43.6500 -79.6167 200° South 10 12 500  Level Toronto Center
Fri 05:25:44 PM 43.6667 -79.5667 65° Northeast 120 138 2,100 1,450 Climbing Toronto Center
Fri 05:26:44 PM 43.6500 -79.5167 115° Southeast 120 138 3,400 1,250 Climbing Toronto Center
Fri 05:27:44 PM 43.6000 -79.5000 166° South 160 184 4,600 800 Climbing Toronto Center
Fri 05:28:44 PM 43.5667 -79.5000 180° South 180 207 5,000 550 Climbing Toronto Center
Fri 05:29:00 PM 43.5246 -80.0422 234° Southwest  Level Estimated
Fri 05:29:44 PM 43.5000 -79.5000 180° South 210 242 5,700  Level Toronto Center
Fri 05:30:44 PM 43.4500 -79.5333 206° Southwest 210 242 6,600 950 Climbing Toronto Center
Fri 05:31:00 PM 43.4284 -80.0913 200° South  Level FlightAware Approximate
Fri 05:31:44 PM 43.4167 -79.6167 241° Southwest 210 242 7,600  Level Toronto Center
Fri 05:32:44 PM 43.3667 -79.6500 206° Southwest 210 242 8,500 900 Climbing Toronto Center
Fri 05:33:44 PM 43.3333 -79.7167 236° Southwest 210 242 9,400 900 Climbing Toronto Center
Fri 05:34:44 PM 43.2833 -79.7667 216° Southwest 210 242 10,300 850 Climbing Toronto Center
Fri 05:35:44 PM 43.2500 -79.8333 236° Southwest 220 253 11,100 850 Climbing Toronto Center
Fri 05:36:44 PM 43.2167 -79.9000 236° Southwest 220 253 12,000 850 Climbing Toronto Center
Fri 05:37:44 PM 43.1833 -79.9833 241° Southwest 220 253 12,800 850 Climbing Toronto Center
Fri 05:38:44 PM 43.1333 -80.0500 224° Southwest 220 253 13,700 850 Climbing Toronto Center
Fri 05:39:44 PM 43.1000 -80.1167 236° Southwest 230 265 14,500 800 Climbing Toronto Center
Fri 05:40:44 PM 43.0667 -80.1833 236° Southwest 230 265 15,300 700 Climbing Toronto Center
Fri 05:41:44 PM 43.0333 -80.2500 236° Southwest 230 265 15,900 350 Climbing Toronto Center
Fri 05:42:44 PM 43.0000 -80.3333 241° Southwest 250 288 16,000 50 Climbing Toronto Center
Fri 05:43:44 PM 42.9500 -80.4000 224° Southwest 270 311 16,000  Level Toronto Center
Fri 05:44:44 PM 42.9000 -80.5000 236° Southwest 280 322 16,000  Level Toronto Center
Fri 05:45:50 PM 42.8553 -80.6092 241° Southwest 275 316 16,000  Level Cleveland Center
Fri 05:46:52 PM 42.8092 -80.6964 234° Southwest 280 322 16,000  Level Cleveland Center
Fri 05:47:54 PM 42.7639 -80.7797 234° Southwest 272 313 16,000  Level Cleveland Center
Fri 05:48:56 PM 42.7178 -80.8622 233° Southwest 271 312 16,000  Level Cleveland Center
Fri 05:49:59 PM 42.6950 -80.9561 252° West 262 302 16,000  Level Cleveland Center
Fri 05:51:01 PM 42.6864 -81.0556 263° West 262 302 16,000  Level Cleveland Center
Fri 05:52:03 PM 42.6736 -81.1719 262° West 265 305 16,000  Level Cleveland Center
Fri 05:53:05 PM 42.6617 -81.2697 261° West 262 302 16,000  Level Cleveland Center
Fri 05:54:07 PM 42.6514 -81.3661 262° West 258 297 16,000 -435 Level Cleveland Center
Fri 05:55:09 PM 42.6386 -81.4675 260° West 268 308 15,100 -968 Descending Cleveland Center
Fri 05:56:11 PM 42.6256 -81.5772 261° West 285 328 14,000 -1,016 Descending Cleveland Center
Fri 05:57:13 PM 42.6119 -81.6894 261° West 295 339 13,000 -968 Descending Cleveland Center
Fri 05:58:15 PM 42.5986 -81.7997 261° West 292 336 12,000 -968 Descending Cleveland Center
Fri 05:59:17 PM 42.5864 -81.9061 261° West 289 333 11,000 -484 Descending Cleveland Center
Fri 06:00:19 PM 42.5714 -82.0303 261° West 282 325 11,000  Level Cleveland Center
Fri 06:01:21 PM 42.5586 -82.1269 260° West 267 307 11,000  Level Cleveland Center
Fri 06:01:52 PM 42.5539 -82.1817 263° West 266 306 11,000  Level Cleveland Center
Fri 06:02:24 PM 42.5472 -82.2247 258° West 264 304 11,000  Level Cleveland Center
Fri 06:03:00 PM 42.5400 -82.2931 262° West 262 302 11,000  Level Cleveland Center
Fri 06:03:26 PM 42.5353 -82.3228 258° West 264 304 11,000  Level Cleveland Center
Fri 06:04:01 PM 42.5269 -82.3933 261° West 262 302 11,000  Level Cleveland Center
Fri 06:04:28 PM 42.5225 -82.4206 258° West 264 304 11,000  Level Cleveland Center
Fri 06:04:56 PM 42.5164 -82.4825 262° West 262 302 11,000  Level Cleveland Center
Fri 06:05:30 PM 42.5106 -82.5161 257° West 260 299 11,000 -97 Level Cleveland Center
Fri 06:05:58 PM 42.4992 -82.5794 256° West 262 302 10,900 -774 Descending Cleveland Center
Fri 06:06:32 PM 42.4783 -82.6261 239° Southwest 263 303 10,200 -1,279 Descending Cleveland Center
Fri 06:06:59 PM 42.4611 -82.6733 244° Southwest 282 325 9,600 -1,065 Descending Cleveland Center
Fri 06:07:34 PM 42.4422 -82.7222 242° Southwest 280 322 9,100 -590 Descending Cleveland Center
Fri 06:08:00 PM 42.4289 -82.7708 250° West 286 329 9,000 -581 Descending Cleveland Center
Fri 06:08:36 PM 42.4236 -82.8214 262° West 279 321 8,500 -984 Descending Cleveland Center
Fri 06:09:01 PM 42.4214 -82.8744 267° West 269 310 8,000 -1,161 Descending Cleveland Center
Fri 06:09:38 PM 42.4164 -82.9217 262° West 270 311 7,300 -1,452 Descending Cleveland Center
Fri 06:10:03 PM 42.4142 -82.9725 267° West 263 303 6,500 -1,452 Descending Cleveland Center
Fri 06:10:40 PM 42.4092 -83.0181 262° West 264 304 5,800 -1,600 Descending Cleveland Center
Fri 06:11:03 PM 42.4025 -83.0728 261° West 254 292 4,900 -1,452 Descending Cleveland Center
Fri 06:11:42 PM 42.3942 -83.1108 253° West 255 293 4,300 -968 Descending Cleveland Center
Fri 06:12:05 PM 42.3750 -83.1592 242° Southwest 227 261 3,900 -677 Descending Cleveland Center
Fri 06:12:44 PM 42.3550 -83.2017 238° Southwest 233 268 3,600 -590 Descending Cleveland Center
Fri 06:13:06 PM 42.3422 -83.2311 240° Southwest 219 252 3,300 -774 Descending Cleveland Center
Fri 06:13:46 PM 42.3169 -83.2619 222° Southwest 221 254 2,800 -885 Descending Cleveland Center
Fri 06:14:07 PM 42.2947 -83.2781 208° Southwest 214 246 2,400 -774 Descending Cleveland Center
Fri 06:14:48 PM 42.2747 -83.3108 230° Southwest 209 241 2,000 -774 Descending Cleveland Center
Fri 06:15:09 PM 42.2614 -83.3297 226° Southwest 146 168 1,600 -952 Descending Cleveland Center
Fri 06:15:51 PM 42.2422 -83.3406 203° Southwest 165 190 1,000 -404 Descending Cleveland Center
Fri 06:16:53 PM 42.2128 -83.3600 206° Southwest 156 180 900 -97 Descending Cleveland Center

Login

Don't have an account? Register now (free) for customized features, flight alerts, and more!